Time;durP1;ratioP1;P1;durP2;ratioP2;P2;SDS_P1;SDS_P2;PMS_P1;PMS_P2;Temp;Humidity;BMP_temperature;BMP_pressure;BME280_temperature;BME280_humidity;BME280_pressure;Samples;Min_cycle;Max_cycle;Signal;HPM_P1;HPM_P2
2023/08/24 02:59:23;;;;;;;15.73;3.37;;;16.80;99.90;;;;;;6247829;22;20195;-42
2023/08/24 03:01:49;;;;;;;16.87;4.03;;;16.90;99.90;;;;;;6247878;23;20144;-43
2023/08/24 03:04:14;;;;;;;22.93;4.30;;;16.90;99.90;;;;;;6245705;23;20156;-41
2023/08/24 03:06:40;;;;;;;24.80;4.53;;;16.90;99.90;;;;;;6247954;23;20159;-42
2023/08/24 03:09:06;;;;;;;26.13;4.57;;;17.00;1.00;;;;;;6247267;22;20511;-43
2023/08/24 03:11:31;;;;;;;20.83;5.00;;;17.00;1.00;;;;;;6247468;23;20219;-41
2023/08/24 03:13:57;;;;;;;24.20;5.10;;;17.00;1.00;;;;;;6247373;23;20159;-43
2023/08/24 03:16:23;;;;;;;35.97;5.30;;;17.00;1.00;;;;;;6247533;23;20632;-42
2023/08/24 03:18:49;;;;;;;37.70;5.83;;;17.10;1.00;;;;;;6247507;22;20152;-42
2023/08/24 03:21:15;;;;;;;23.43;4.97;;;17.10;1.00;;;;;;6246980;22;20160;-42
2023/08/24 03:23:40;;;;;;;23.00;4.27;;;17.20;1.00;;;;;;6247456;23;20235;-41
2023/08/24 03:26:06;;;;;;;21.43;4.80;;;17.30;1.00;;;;;;6247036;23;20175;-42
2023/08/24 03:28:31;;;;;;;9.37;3.63;;;17.30;99.90;;;;;;6247902;23;20471;-43
2023/08/24 03:30:57;;;;;;;14.03;3.60;;;17.30;99.90;;;;;;6247179;23;20230;-42
2023/08/24 03:33:23;;;;;;;23.37;4.70;;;17.30;1.00;;;;;;6247534;23;20136;-41
2023/08/24 03:35:50;;;;;;;17.87;4.40;;;17.30;1.00;;;;;;6247163;22;20222;-42
2023/08/24 04:40:29;;;;;;;10.13;4.87;;;17.10;1.00;;;;;;6239890;22;20233;-92
2023/08/24 04:42:55;;;;;;;11.57;4.17;;;17.20;1.00;;;;;;6249062;23;20187;-90
2023/08/24 04:45:20;;;;;;;7.30;3.80;;;17.20;1.00;;;;;;6249631;23;20646;-92
2023/08/24 04:47:46;;;;;;;10.37;4.00;;;17.20;1.00;;;;;;6249940;22;20237;-92
2023/08/24 04:50:13;;;;;;;14.70;3.47;;;17.20;1.00;;;;;;6248578;23;20658;-92
2023/08/24 04:52:39;;;;;;;8.80;4.00;;;17.10;1.00;;;;;;6252986;22;20169;-87
2023/08/24 04:55:05;;;;;;;9.40;4.13;;;17.30;1.00;;;;;;6256719;22;20184;-90
2023/08/24 04:57:31;;;;;;;8.33;3.60;;;17.30;1.00;;;;;;6250864;23;20200;-91
2023/08/24 04:59:57;;;;;;;10.20;3.97;;;17.40;1.00;;;;;;6250849;22;20147;-92
2023/08/24 05:02:23;;;;;;;8.63;3.87;;;17.40;1.00;;;;;;6224089;23;20160;-91
2023/08/24 05:04:48;;;;;;;11.67;4.13;;;17.40;1.00;;;;;;6223723;23;20628;-92
2023/08/24 05:07:14;;;;;;;10.37;4.20;;;17.40;1.00;;;;;;6251017;23;20179;-89
2023/08/24 05:09:40;;;;;;;14.67;4.80;;;17.40;1.00;;;;;;6248498;23;20599;-90
2023/08/24 05:12:05;;;;;;;10.50;3.67;;;17.40;1.00;;;;;;6250043;23;20584;-92
2023/08/24 05:14:32;;;;;;;9.63;3.70;;;17.40;1.00;;;;;;6251799;22;20239;-91
2023/08/24 05:16:57;;;;;;;10.50;4.37;;;17.40;1.00;;;;;;6250169;23;20155;-93
2023/08/24 05:19:23;;;;;;;8.20;5.00;;;17.40;1.00;;;;;;6251034;23;20584;-91
2023/08/24 05:21:49;;;;;;;12.30;4.40;;;17.60;1.00;;;;;;6249780;23;20186;-92
2023/08/24 05:24:14;;;;;;;8.13;4.13;;;17.40;1.00;;;;;;6250358;23;20253;-90
2023/08/24 05:26:40;;;;;;;9.00;3.93;;;17.50;1.00;;;;;;6250428;23;20159;-92
2023/08/24 05:29:06;;;;;;;12.00;4.00;;;17.50;1.00;;;;;;6250881;23;20205;-90
2023/08/24 05:31:32;;;;;;;13.60;4.20;;;17.50;1.00;;;;;;6251206;23;20163;-91
2023/08/24 05:33:57;;;;;;;8.07;4.07;;;17.60;1.00;;;;;;6252413;23;20166;-91
2023/08/24 05:36:23;;;;;;;10.57;4.33;;;17.50;1.00;;;;;;6252713;23;20251;-92
2023/08/24 05:38:48;;;;;;;6.23;4.23;;;17.50;1.00;;;;;;6253123;23;20610;-93
2023/08/24 05:41:14;;;;;;;13.67;4.90;;;17.60;1.00;;;;;;6254291;23;20179;-91
2023/08/24 05:43:40;;;;;;;9.23;4.27;;;17.60;1.00;;;;;;6253151;23;20548;-91
2023/08/24 05:46:06;;;;;;;9.57;4.43;;;17.60;1.00;;;;;;6253614;22;20223;-90
2023/08/24 05:48:31;;;;;;;6.87;4.20;;;17.70;1.00;;;;;;6252471;23;20188;-91
2023/08/24 05:50:57;;;;;;;9.63;4.23;;;17.70;1.00;;;;;;6252669;23;20168;-88
2023/08/24 05:53:22;;;;;;;9.53;4.53;;;17.70;1.00;;;;;;6239327;23;20543;-90
2023/08/24 05:55:48;;;;;;;6.97;4.10;;;17.70;1.00;;;;;;6252631;23;20175;-90
2023/08/24 05:58:14;;;;;;;13.57;4.23;;;17.70;1.00;;;;;;6253921;22;20163;-90
2023/08/24 06:00:39;;;;;;;15.03;4.70;;;17.80;1.00;;;;;;6252750;23;20160;-91
2023/08/24 06:03:05;;;;;;;8.13;4.40;;;17.80;1.00;;;;;;6254320;22;20155;-92
2023/08/24 06:05:31;;;;;;;10.83;4.40;;;17.80;1.00;;;;;;6253643;22;20237;-91
2023/08/24 06:07:57;;;;;;;7.57;4.00;;;17.90;1.00;;;;;;6254819;22;20230;-88
2023/08/24 06:10:22;;;;;;;11.63;4.17;;;17.90;1.00;;;;;;6254392;22;20156;-91
2023/08/24 06:12:49;;;;;;;12.77;4.90;;;17.90;1.00;;;;;;6252152;23;20231;-91
2023/08/24 06:15:15;;;;;;;6.63;4.33;;;18.00;1.00;;;;;;6252717;23;20175;-91
2023/08/24 06:17:41;;;;;;;8.27;4.30;;;18.10;1.00;;;;;;6254575;22;20170;-89
2023/08/24 06:20:10;;;;;;;10.53;4.10;;;18.10;1.00;;;;;;6253071;23;20183;-90
2023/08/24 06:22:36;;;;;;;7.63;4.47;;;18.30;1.00;;;;;;6258283;22;20162;-90
2023/08/24 06:25:02;;;;;;;6.33;4.10;;;18.30;1.00;;;;;;6265728;22;20230;-91
2023/08/24 06:27:28;;;;;;;9.73;4.37;;;18.40;4.80;;;;;;6252224;22;20528;-91
2023/08/24 06:29:54;;;;;;;8.87;4.40;;;18.50;15.90;;;;;;6251540;23;20163;-91
2023/08/24 06:32:19;;;;;;;9.33;4.17;;;18.60;8.80;;;;;;6251163;23;20174;-90
2023/08/24 06:34:45;;;;;;;8.87;4.13;;;18.80;7.70;;;;;;6250886;23;20203;-91
2023/08/24 06:37:11;;;;;;;6.20;3.43;;;18.90;11.70;;;;;;6251227;23;20159;-90
2023/08/24 06:39:38;;;;;;;10.77;4.03;;;19.00;1.00;;;;;;6252036;23;20240;-91
2023/08/24 06:42:05;;;;;;;9.67;4.00;;;19.20;1.00;;;;;;6251117;23;20160;-91
2023/08/24 06:44:31;;;;;;;9.37;3.80;;;19.30;1.00;;;;;;6250760;23;20179;-90
2023/08/24 06:46:59;;;;;;;6.00;3.23;;;19.30;1.00;;;;;;6250981;23;20162;-89
2023/08/24 06:49:26;;;;;;;5.27;3.50;;;19.50;1.00;;;;;;6252399;23;20163;-92
2023/08/24 06:51:51;;;;;;;7.40;3.43;;;19.60;1.00;;;;;;6260678;22;20171;-88
2023/08/24 06:54:18;;;;;;;6.50;3.47;;;19.70;1.00;;;;;;6258470;22;20175;-90
2023/08/24 06:56:44;;;;;;;5.57;3.40;;;19.70;1.00;;;;;;6254987;23;20183;-92
2023/08/24 06:59:12;;;;;;;8.00;3.40;;;19.90;1.00;;;;;;6253482;23;20198;-90
2023/08/24 07:01:38;;;;;;;9.47;4.30;;;20.20;1.00;;;;;;6255307;22;20155;-91
2023/08/24 07:04:04;;;;;;;5.80;3.13;;;20.10;1.00;;;;;;6253356;23;20163;-89
2023/08/24 07:06:30;;;;;;;4.70;3.10;;;20.30;1.00;;;;;;6254641;23;20186;-93
2023/08/24 07:08:55;;;;;;;7.80;3.43;;;20.50;1.00;;;;;;6253057;23;20187;-91
2023/08/24 07:11:21;;;;;;;7.13;3.87;;;20.60;1.00;;;;;;6255767;23;20171;-90
2023/08/24 07:13:48;;;;;;;7.40;3.87;;;20.70;1.00;;;;;;6256649;23;20167;-91
2023/08/24 07:16:13;;;;;;;7.87;3.77;;;20.80;1.00;;;;;;6255979;23;20238;-93
2023/08/24 07:18:39;;;;;;;8.13;3.67;;;21.00;1.00;;;;;;6255113;23;20658;-92
2023/08/24 07:21:04;;;;;;;5.10;3.53;;;21.30;1.00;;;;;;6255069;23;20159;-91
2023/08/24 07:23:30;;;;;;;6.23;3.63;;;21.30;1.00;;;;;;6255497;23;20221;-90
2023/08/24 07:25:56;;;;;;;5.17;3.97;;;21.50;1.00;;;;;;6256133;23;20511;-92
2023/08/24 07:28:21;;;;;;;7.97;3.67;;;21.70;1.00;;;;;;6254431;23;20226;-90
2023/08/24 07:30:47;;;;;;;6.47;3.33;;;21.80;1.00;;;;;;6256137;23;20151;-91
2023/08/24 07:33:12;;;;;;;5.83;3.13;;;21.90;1.00;;;;;;6255851;23;20156;-91
2023/08/24 07:35:39;;;;;;;5.27;3.23;;;22.20;1.00;;;;;;6255840;23;20203;-90
2023/08/24 07:38:06;;;;;;;7.07;3.23;;;22.30;1.00;;;;;;6255257;23;20627;-90
2023/08/24 07:40:31;;;;;;;6.67;3.70;;;22.40;1.00;;;;;;6254134;23;20175;-91
2023/08/24 07:42:57;;;;;;;4.70;3.13;;;22.60;1.00;;;;;;6255231;23;20160;-90
2023/08/24 07:45:23;;;;;;;8.20;3.10;;;22.70;1.00;;;;;;6255329;23;20191;-88
2023/08/24 07:47:49;;;;;;;9.77;3.27;;;22.90;1.00;;;;;;6258499;23;20186;-91
2023/08/24 07:50:14;;;;;;;6.20;3.57;;;23.00;1.00;;;;;;6258765;23;20152;-91
2023/08/24 07:52:40;;;;;;;6.67;3.40;;;23.10;99.90;;;;;;6255988;23;20156;-89
2023/08/24 07:55:07;;;;;;;6.50;3.70;;;23.20;99.90;;;;;;6253243;23;20186;-91
2023/08/24 07:57:36;;;;;;;5.57;3.50;;;23.30;99.90;;;;;;6227911;23;20160;-92
2023/08/24 08:00:06;;;;;;;7.97;4.00;;;23.30;99.90;;;;;;6255599;23;20159;-90
2023/08/24 08:02:35;;;;;;;11.10;3.73;;;23.40;99.90;;;;;;6262464;22;20160;-90
2023/08/24 08:05:01;;;;;;;5.77;3.40;;;23.40;99.90;;;;;;6269848;22;20219;-91
2023/08/24 08:07:27;;;;;;;6.93;3.67;;;23.40;99.90;;;;;;6256573;23;20179;-90
2023/08/24 08:09:53;;;;;;;6.07;3.37;;;23.50;99.90;;;;;;6254978;23;20159;-89
2023/08/24 08:12:18;;;;;;;7.43;3.43;;;23.60;99.90;;;;;;6253292;23;20151;-90
2023/08/24 08:14:45;;;;;;;7.47;3.90;;;23.70;99.90;;;;;;6255478;23;20175;-89
2023/08/24 08:17:11;;;;;;;5.57;3.60;;;23.80;1.00;;;;;;6228739;23;20175;-89
2023/08/24 08:19:37;;;;;;;7.53;3.60;;;24.00;1.00;;;;;;6255751;22;20511;-90
2023/08/24 08:22:04;;;;;;;6.77;3.50;;;24.10;1.00;;;;;;6255363;23;20183;-90
2023/08/24 08:24:29;;;;;;;4.97;3.00;;;24.20;99.90;;;;;;6256147;22;20250;-89
2023/08/24 08:26:55;;;;;;;9.00;3.67;;;24.40;99.90;;;;;;6253653;23;20152;-91
2023/08/24 08:29:21;;;;;;;4.87;2.90;;;24.40;50.80;;;;;;6254179;23;20201;-89
2023/08/24 08:31:46;;;;;;;4.40;2.87;;;24.60;99.90;;;;;;6252858;23;20182;-90
2023/08/24 08:34:12;;;;;;;7.73;3.30;;;24.70;99.90;;;;;;6253158;23;20151;-90
2023/08/24 08:36:38;;;;;;;8.63;3.43;;;24.80;1.00;;;;;;6254005;23;20159;-89
2023/08/24 08:39:04;;;;;;;8.57;3.23;;;25.00;1.00;;;;;;6253135;23;20605;-91
2023/08/24 08:41:38;;;;;;;7.40;3.03;;;25.20;1.00;;;;;;6254280;23;20174;-89
2023/08/24 08:44:06;;;;;;;7.73;3.20;;;25.30;99.90;;;;;;6254584;22;20154;-90
2023/08/24 08:46:32;;;;;;;6.93;3.27;;;25.30;1.00;;;;;;6255705;22;20167;-84
2023/08/24 08:49:00;;;;;;;6.73;2.90;;;25.40;99.90;;;;;;6261161;22;20180;-91
2023/08/24 08:51:28;;;;;;;6.87;2.73;;;25.50;99.90;;;;;;6231713;23;20551;-90
2023/08/24 08:53:53;;;;;;;9.13;3.10;;;25.60;99.90;;;;;;6256003;23;20191;-88
2023/08/24 08:56:19;;;;;;;10.40;3.03;;;25.60;99.90;;;;;;6256134;23;20198;-88
2023/08/24 08:58:46;;;;;;;4.30;2.60;;;25.70;1.00;;;;;;6256527;23;20506;-89
2023/08/24 09:01:12;;;;;;;6.83;2.70;;;25.80;1.00;;;;;;6257863;22;20211;-89
2023/08/24 09:03:39;;;;;;;7.57;2.80;;;25.90;1.00;;;;;;6256373;23;20174;-88
2023/08/24 09:06:05;;;;;;;5.50;2.77;;;25.90;99.90;;;;;;6256116;23;20190;-90
2023/08/24 09:08:31;;;;;;;4.27;3.00;;;26.00;99.90;;;;;;6257763;23;20230;-89
2023/08/24 09:10:58;;;;;;;6.67;3.00;;;26.10;99.90;;;;;;6257735;22;20167;-89
2023/08/24 09:13:24;;;;;;;4.73;2.60;;;26.20;99.90;;;;;;6257705;23;20152;-90
2023/08/24 09:15:53;;;;;;;5.43;3.00;;;26.20;1.00;;;;;;6257458;23;20239;-90
2023/08/24 09:18:19;;;;;;;3.73;2.83;;;26.30;1.00;;;;;;6258691;23;20255;-89
2023/08/24 09:20:47;;;;;;;7.63;3.03;;;26.40;1.00;;;;;;6258306;23;20181;-91
2023/08/24 09:23:22;;;;;;;5.93;2.60;;;26.40;1.00;;;;;;6258918;23;20155;-91
2023/08/24 09:25:48;;;;;;;3.73;2.50;;;26.60;1.00;;;;;;6259254;23;20178;-92
2023/08/24 09:28:13;;;;;;;5.27;2.60;;;26.70;1.00;;;;;;6259658;23;20229;-88
2023/08/24 09:30:39;;;;;;;4.40;2.50;;;26.70;1.00;;;;;;6261082;23;20148;-90
2023/08/24 09:33:10;;;;;;;5.93;2.90;;;26.80;1.00;;;;;;6261439;23;20147;-90
2023/08/24 09:35:37;;;;;;;6.13;2.77;;;26.90;1.00;;;;;;6261995;22;20227;-91
2023/08/24 09:38:19;;;;;;;9.40;2.77;;;27.00;1.00;;;;;;6262152;22;20156;-92
2023/08/24 09:40:50;;;;;;;7.27;3.00;;;27.10;1.00;;;;;;6262580;22;20172;-91
2023/08/24 09:43:16;;;;;;;3.60;2.50;;;27.10;1.00;;;;;;6257178;23;20152;-91
2023/08/24 09:45:50;;;;;;;5.23;2.67;;;26.50;1.00;;;;;;6270563;22;20174;-88
2023/08/24 09:48:17;;;;;;;4.97;2.87;;;27.30;1.00;;;;;;6258093;23;20180;-90
2023/08/24 09:50:44;;;;;;;4.83;2.90;;;27.30;1.00;;;;;;6230984;23;20159;-91
2023/08/24 09:53:22;;;;;;;5.70;2.60;;;27.40;1.00;;;;;;6256760;22;20148;-89
2023/08/24 09:55:59;;;;;;;15.97;2.80;;;27.50;1.00;;;;;;6256784;22;20225;-89
2023/08/24 09:58:26;;;;;;;6.13;2.53;;;27.50;99.90;;;;;;6255940;23;20148;-90
2023/08/24 10:00:52;;;;;;;9.23;2.93;;;27.50;99.90;;;;;;6254401;23;20166;-91
2023/08/24 10:03:25;;;;;;;7.73;3.10;;;27.60;99.90;;;;;;6255940;22;20158;-91
2023/08/24 10:06:00;;;;;;;5.43;2.83;;;27.60;1.00;;;;;;6255149;23;20257;-90
2023/08/24 10:08:37;;;;;;;6.87;2.73;;;27.70;1.00;;;;;;6256766;23;20210;-85
2023/08/24 10:11:05;;;;;;;5.70;2.50;;;27.70;99.90;;;;;;6263203;22;20498;-90
2023/08/24 10:13:54;;;;;;;6.00;2.50;;;27.80;99.90;;;;;;6256766;23;20159;-90
2023/08/24 10:16:21;;;;;;;6.63;3.23;;;27.90;99.90;;;;;;6243111;23;20180;-90
2023/08/24 10:18:48;;;;;;;3.67;2.60;;;28.00;99.90;;;;;;6256229;23;20155;-88
2023/08/24 10:21:14;;;;;;;4.83;2.57;;;28.00;99.90;;;;;;6254885;23;20166;-90
2023/08/24 10:23:42;;;;;;;7.47;2.57;;;28.10;99.90;;;;;;6256675;23;20164;-90
2023/08/24 10:26:10;;;;;;;6.63;2.80;;;28.10;99.90;;;;;;6258178;22;20189;-91
2023/08/24 10:28:36;;;;;;;7.80;3.00;;;28.20;99.90;;;;;;6255429;23;20187;-89
2023/08/24 10:31:02;;;;;;;4.10;2.30;;;28.30;99.90;;;;;;6254428;23;20155;-88
2023/08/24 10:33:31;;;;;;;4.73;2.40;;;28.40;99.90;;;;;;6255729;22;20155;-91
2023/08/24 10:35:57;;;;;;;8.30;2.40;;;28.50;99.90;;;;;;6234126;23;20558;-90
2023/08/24 10:38:25;;;;;;;6.90;2.50;;;28.50;99.90;;;;;;6260899;23;20167;-91
2023/08/24 10:40:52;;;;;;;7.30;2.73;;;28.60;99.90;;;;;;6260261;23;20176;-90
2023/08/24 10:43:17;;;;;;;4.90;2.53;;;28.70;99.90;;;;;;6255962;23;20501;-90
2023/08/24 10:46:04;;;;;;;6.33;2.50;;;28.80;99.90;;;;;;6234036;23;20190;-85
2023/08/24 10:48:52;;;;;;;5.83;2.43;;;29.00;99.90;;;;;;6258375;23;20190;-89
2023/08/24 10:51:21;;;;;;;4.40;2.40;;;29.00;99.90;;;;;;6256882;23;20205;-90
2023/08/24 10:53:57;;;;;;;5.87;2.70;;;29.10;99.90;;;;;;6261551;22;20227;-87
2023/08/24 10:56:36;;;;;;;6.20;2.43;;;29.20;99.90;;;;;;6259767;22;20136;-89
2023/08/24 10:59:18;;;;;;;4.83;2.40;;;29.20;99.90;;;;;;6258338;22;20144;-87
2023/08/24 11:02:06;;;;;;;5.70;2.70;;;29.20;99.90;;;;;;6258140;22;20147;-88
2023/08/24 11:04:32;;;;;;;3.93;2.60;;;29.20;99.90;;;;;;6256029;23;20636;-89
2023/08/24 11:07:01;;;;;;;6.65;2.88;;;29.20;99.90;;;;;;6255049;23;20167;-89
2023/08/24 11:09:49;;;;;;;5.67;2.13;;;29.30;99.90;;;;;;6256902;23;20183;-89
2023/08/24 11:12:16;;;;;;;8.10;2.50;;;29.30;99.90;;;;;;6259159;23;20140;-89
2023/08/24 11:14:54;;;;;;;6.00;2.53;;;29.30;99.90;;;;;;6257317;22;20519;-88
2023/08/24 11:17:21;;;;;;;3.10;2.10;;;29.20;99.90;;;;;;6256089;23;20162;-86
2023/08/24 11:19:49;;;;;;;6.63;2.50;;;29.20;99.90;;;;;;6255818;23;20158;-90
2023/08/24 11:22:16;;;;;;;19.30;10.30;;;29.10;99.90;;;;;;6255396;23;20164;-90
2023/08/24 11:24:42;;;;;;;17.43;7.83;;;29.00;99.90;;;;;;6255451;23;20171;-85
2023/08/24 11:27:09;;;;;;;6.30;2.93;;;28.90;99.90;;;;;;6255134;23;20210;-88
2023/08/24 11:29:34;;;;;;;6.27;2.73;;;28.90;99.90;;;;;;6254684;23;20530;-90
2023/08/24 11:32:00;;;;;;;9.60;2.93;;;28.90;99.90;;;;;;6255691;23;20159;-89
2023/08/24 11:34:26;;;;;;;5.40;2.50;;;28.80;99.90;;;;;;6256085;23;20178;-88
2023/08/24 11:36:52;;;;;;;8.57;2.77;;;28.70;99.90;;;;;;6254953;23;20162;-90
2023/08/24 11:39:24;;;;;;;5.63;2.37;;;28.50;99.90;;;;;;6252117;23;20243;-87
2023/08/24 11:41:58;;;;;;;7.90;2.50;;;28.40;99.90;;;;;;6253328;23;20183;-85
2023/08/24 11:44:23;;;;;;;4.20;2.40;;;28.10;99.90;;;;;;6253178;22;20570;-90
2023/08/24 11:46:49;;;;;;;6.50;2.80;;;27.80;99.90;;;;;;6253017;23;20152;-90
2023/08/24 11:49:15;;;;;;;6.33;2.83;;;27.60;99.90;;;;;;6251789;22;20183;-90
2023/08/24 11:51:40;;;;;;;8.77;3.00;;;27.40;1.00;;;;;;6251289;23;20525;-90
2023/08/24 11:54:06;;;;;;;6.70;2.83;;;27.20;1.00;;;;;;6252027;23;20155;-93
2023/08/24 11:56:32;;;;;;;9.97;3.40;;;26.90;99.90;;;;;;6251431;23;20155;-90
2023/08/24 11:58:57;;;;;;;10.77;3.77;;;26.60;99.90;;;;;;6250929;23;20568;-90
2023/08/24 12:01:24;;;;;;;11.27;3.90;;;26.30;1.00;;;;;;6253286;23;20159;-92
2023/08/24 12:03:50;;;;;;;8.73;3.57;;;25.90;1.00;;;;;;6251149;23;20242;-89
2023/08/24 12:06:16;;;;;;;6.97;3.27;;;25.60;1.00;;;;;;6253040;23;20178;-90
2023/08/24 12:08:45;;;;;;;8.30;3.33;;;25.40;1.00;;;;;;6252259;23;20183;-91
2023/08/24 12:11:20;;;;;;;7.67;3.73;;;25.30;99.90;;;;;;6252984;23;20239;-90
2023/08/24 12:13:48;;;;;;;10.70;3.67;;;25.20;99.90;;;;;;6251819;22;20207;-91
2023/08/24 12:16:16;;;;;;;8.03;3.97;;;25.20;1.00;;;;;;6251528;22;20168;-90
2023/08/24 12:18:52;;;;;;;4.37;3.00;;;25.10;1.00;;;;;;6262175;23;20245;-88
2023/08/24 12:21:19;;;;;;;6.87;3.53;;;25.10;1.00;;;;;;6252284;22;20182;-87
2023/08/24 12:23:54;;;;;;;7.53;3.80;;;25.20;1.00;;;;;;6250662;23;20168;-90
2023/08/24 12:26:20;;;;;;;6.60;4.00;;;25.20;1.00;;;;;;6248650;23;20163;-90
2023/08/24 12:28:50;;;;;;;7.13;3.90;;;25.40;1.00;;;;;;6250267;23;20187;-91
2023/08/24 12:31:17;;;;;;;7.80;3.90;;;25.50;1.00;;;;;;6250724;23;20148;-89
2023/08/24 12:33:44;;;;;;;6.73;3.40;;;25.60;1.00;;;;;;6251875;23;20206;-92
2023/08/24 12:36:09;;;;;;;8.77;4.20;;;25.70;1.00;;;;;;6250337;23;20551;-91
2023/08/24 12:38:39;;;;;;;4.53;3.27;;;25.70;1.00;;;;;;6251916;23;20175;-87
2023/08/24 12:41:06;;;;;;;8.53;3.87;;;25.70;1.00;;;;;;6249784;23;20191;-91
2023/08/24 12:43:32;;;;;;;10.67;3.47;;;25.80;1.00;;;;;;6249559;23;20167;-90
2023/08/24 12:45:58;;;;;;;8.40;3.43;;;25.80;1.00;;;;;;6261414;23;20187;-89
2023/08/24 12:48:23;;;;;;;8.00;4.10;;;25.80;1.00;;;;;;6250003;23;20214;-93
2023/08/24 12:50:49;;;;;;;9.00;3.63;;;25.80;1.00;;;;;;6249024;23;20213;-91
2023/08/24 12:53:14;;;;;;;5.60;3.17;;;25.80;1.00;;;;;;6254510;23;20147;-90
2023/08/24 12:55:40;;;;;;;5.90;3.50;;;25.80;1.00;;;;;;6255581;23;20453;-92
2023/08/24 12:58:06;;;;;;;7.50;3.47;;;25.80;1.00;;;;;;6255023;23;20246;-90
2023/08/24 13:00:32;;;;;;;5.00;3.13;;;25.70;1.00;;;;;;6256277;23;20588;-90
2023/08/24 13:02:57;;;;;;;5.27;3.03;;;25.60;1.00;;;;;;6258647;23;20158;-91
2023/08/24 13:05:24;;;;;;;6.30;2.93;;;25.60;1.00;;;;;;6255489;23;20187;-90
2023/08/24 13:07:51;;;;;;;7.13;3.20;;;25.60;1.00;;;;;;6254223;23;20243;-89
2023/08/24 13:10:20;;;;;;;5.97;3.40;;;25.50;99.90;;;;;;6262635;23;20147;-84
2023/08/24 13:12:45;;;;;;;7.20;3.17;;;25.40;1.00;;;;;;6272931;22;20168;-88
2023/08/24 13:15:11;;;;;;;9.07;3.80;;;25.40;1.00;;;;;;6251323;23;20198;-89
2023/08/24 13:17:37;;;;;;;6.47;2.90;;;25.20;1.00;;;;;;6250657;23;20163;-89
2023/08/24 13:20:03;;;;;;;5.63;2.90;;;25.10;1.00;;;;;;6249837;23;20155;-91
2023/08/24 13:22:28;;;;;;;7.07;3.23;;;25.00;1.00;;;;;;6248666;23;20155;-91
2023/08/24 13:24:54;;;;;;;12.33;3.07;;;25.00;1.00;;;;;;6250283;22;20175;-90
2023/08/24 13:27:20;;;;;;;4.27;2.80;;;25.00;1.00;;;;;;6249164;23;20171;-90
2023/08/24 13:29:45;;;;;;;5.93;2.80;;;24.90;1.00;;;;;;6249455;23;20588;-90
2023/08/24 13:32:11;;;;;;;4.43;2.63;;;23.90;1.00;;;;;;6250676;23;20171;-91
2023/08/24 13:34:37;;;;;;;4.60;2.90;;;24.80;99.90;;;;;;6249191;23;20628;-90
2023/08/24 13:37:04;;;;;;;4.80;2.30;;;24.80;1.00;;;;;;6251123;23;20163;-89
2023/08/24 13:39:29;;;;;;;5.13;2.40;;;24.80;99.90;;;;;;6249026;23;20163;-90
2023/08/24 13:41:56;;;;;;;5.43;2.50;;;24.80;99.90;;;;;;6251261;23;20190;-90
2023/08/24 13:44:22;;;;;;;3.83;2.10;;;24.80;99.90;;;;;;6224576;23;20210;-89
2023/08/24 13:46:48;;;;;;;10.37;2.40;;;24.80;1.00;;;;;;6224616;23;20166;-89
2023/08/24 13:49:13;;;;;;;4.13;2.80;;;24.70;1.00;;;;;;6224131;23;20179;-91
2023/08/24 13:51:39;;;;;;;4.40;2.73;;;24.70;1.00;;;;;;6224619;23;20151;-92
2023/08/24 13:54:18;;;;;;;4.37;2.53;;;24.70;1.00;;;;;;6224760;23;20180;-89
2023/08/24 13:56:45;;;;;;;7.43;2.90;;;24.60;1.00;;;;;;6225823;23;20159;-90
2023/08/24 13:59:11;;;;;;;4.13;2.30;;;24.60;1.00;;;;;;6226026;23;20164;-91
2023/08/24 14:01:37;;;;;;;7.17;2.53;;;24.60;1.00;;;;;;6225486;23;20156;-91
2023/08/24 14:04:03;;;;;;;5.37;2.90;;;24.50;1.00;;;;;;6225420;23;20238;-90
2023/08/24 14:06:33;;;;;;;6.00;2.70;;;24.50;1.00;;;;;;6224373;23;20242;-91
2023/08/24 14:08:59;;;;;;;7.87;2.93;;;24.40;1.00;;;;;;6224742;23;20186;-93
2023/08/24 14:11:24;;;;;;;6.27;2.87;;;24.40;1.00;;;;;;6225949;23;20160;-92
2023/08/24 14:13:51;;;;;;;8.27;3.20;;;24.20;1.00;;;;;;6225119;23;20183;-91
2023/08/24 14:16:18;;;;;;;7.47;2.90;;;24.10;1.00;;;;;;6252172;23;20175;-88
2023/08/24 14:18:44;;;;;;;7.07;2.90;;;24.10;1.00;;;;;;6238353;23;20202;-91
2023/08/24 14:21:14;;;;;;;5.97;2.93;;;23.90;1.00;;;;;;6230092;23;20167;-92
2023/08/24 14:23:40;;;;;;;9.30;3.40;;;23.90;1.00;;;;;;6228544;23;20160;-91
2023/08/24 14:26:06;;;;;;;7.17;2.70;;;23.80;1.00;;;;;;6228927;23;20235;-93
2023/08/24 14:28:53;;;;;;;4.63;2.53;;;23.60;1.00;;;;;;6230296;23;20191;-90
2023/08/24 14:31:19;;;;;;;6.10;3.00;;;23.60;1.00;;;;;;6230822;23;20155;-92
2023/08/24 14:33:46;;;;;;;9.07;2.70;;;23.40;1.00;;;;;;6228233;23;20166;-92
2023/08/24 14:36:12;;;;;;;5.50;2.40;;;23.30;1.00;;;;;;6255523;23;20183;-91
2023/08/24 14:38:42;;;;;;;5.00;2.60;;;23.20;1.00;;;;;;6230977;23;20163;-90
2023/08/24 14:41:09;;;;;;;7.03;2.50;;;23.20;1.00;;;;;;6244026;23;20237;-94
2023/08/24 14:43:38;;;;;;;9.63;2.63;;;23.10;1.00;;;;;;6253953;23;20226;-94
2023/08/24 14:46:04;;;;;;;9.77;2.57;;;23.00;1.00;;;;;;6254732;23;20186;-94
2023/08/24 14:48:30;;;;;;;6.30;2.53;;;22.70;1.00;;;;;;6255375;23;20214;-91
2023/08/24 14:50:59;;;;;;;6.50;2.40;;;22.80;1.00;;;;;;6256504;23;20573;-93
2023/08/24 14:53:25;;;;;;;5.53;2.23;;;22.70;1.00;;;;;;6259321;23;20174;-92
2023/08/24 14:55:53;;;;;;;8.67;1.80;;;22.70;1.00;;;;;;6265907;22;20654;-93
2023/08/24 14:58:19;;;;;;;10.53;2.90;;;22.40;1.00;;;;;;6256743;23;20540;-93
2023/08/24 15:00:48;;;;;;;6.37;2.37;;;22.30;1.00;;;;;;6255829;23;20679;-93
2023/08/24 15:03:14;;;;;;;5.07;2.10;;;22.20;1.00;;;;;;6256477;23;20197;-92
2023/08/24 15:05:45;;;;;;;2.77;1.80;;;22.20;1.00;;;;;;6256275;23;20179;-91
2023/08/24 15:08:11;;;;;;;4.77;1.77;;;20.70;1.00;;;;;;6256929;23;20191;-93
2023/08/24 15:10:40;;;;;;;6.23;2.07;;;22.00;1.00;;;;;;6260217;22;20232;-92
2023/08/24 15:13:06;;;;;;;4.80;1.63;;;21.70;1.00;;;;;;6258315;22;20155;-92
2023/08/24 15:15:36;;;;;;;2.90;1.57;;;21.80;1.00;;;;;;6257307;23;20191;-92
2023/08/24 15:18:03;;;;;;;7.00;1.83;;;21.90;1.00;;;;;;6256801;23;20561;-94
2023/08/24 15:20:28;;;;;;;3.67;1.60;;;21.80;1.00;;;;;;6258754;23;20166;-92
2023/08/24 15:22:54;;;;;;;4.90;2.20;;;21.60;1.00;;;;;;6259879;22;20159;-93
2023/08/24 15:25:21;;;;;;;3.17;1.40;;;21.70;1.00;;;;;;6256678;23;20175;-91
2023/08/24 15:27:47;;;;;;;6.00;1.80;;;21.70;1.00;;;;;;6256404;23;20227;-89
2023/08/24 15:30:13;;;;;;;7.13;1.40;;;21.70;1.00;;;;;;6257256;23;20215;-94
2023/08/24 15:32:38;;;;;;;4.83;1.27;;;21.50;1.00;;;;;;6258434;22;20148;-93
2023/08/24 15:35:05;;;;;;;3.00;1.30;;;21.50;1.00;;;;;;6257988;23;20217;-91
2023/08/24 15:37:31;;;;;;;2.67;1.10;;;21.40;1.00;;;;;;6258402;23;20159;-91
2023/08/24 15:39:57;;;;;;;2.73;1.00;;;21.30;1.00;;;;;;6259678;23;20174;-91
2023/08/24 15:42:23;;;;;;;3.90;0.90;;;21.40;1.00;;;;;;6256144;23;20585;-90
2023/08/24 15:44:49;;;;;;;4.17;1.17;;;21.30;1.00;;;;;;6256984;23;20172;-90
2023/08/24 15:47:14;;;;;;;1.73;0.90;;;21.30;1.00;;;;;;6254970;23;20219;-91
2023/08/24 15:49:40;;;;;;;2.47;1.00;;;21.40;1.00;;;;;;6254879;23;20164;-92
2023/08/24 15:52:06;;;;;;;2.37;0.90;;;21.40;1.00;;;;;;6255242;22;20147;-93
2023/08/24 15:54:31;;;;;;;4.37;0.90;;;21.40;1.00;;;;;;6254760;23;20171;-92
2023/08/24 15:56:58;;;;;;;4.67;1.40;;;21.40;1.00;;;;;;6253442;23;20171;-93
2023/08/24 15:59:25;;;;;;;2.17;1.13;;;21.40;1.00;;;;;;6255457;22;20547;-91
2023/08/24 16:01:51;;;;;;;4.83;1.00;;;21.30;1.00;;;;;;6254872;23;20159;-92
2023/08/24 16:04:16;;;;;;;4.63;1.00;;;21.40;1.00;;;;;;6253504;23;20590;-91
2023/08/24 16:06:43;;;;;;;3.77;0.80;;;21.60;1.00;;;;;;6253060;23;20166;-93
2023/08/24 16:09:09;;;;;;;7.60;1.10;;;21.40;1.00;;;;;;6251525;23;20187;-91
2023/08/24 16:11:35;;;;;;;2.07;1.03;;;21.50;1.00;;;;;;6252346;23;20191;-93
2023/08/24 16:14:03;;;;;;;2.37;1.13;;;21.50;1.00;;;;;;6251901;22;20151;-92
2023/08/24 16:16:29;;;;;;;2.00;1.03;;;21.50;1.00;;;;;;6251089;22;20230;-89
2023/08/24 16:18:56;;;;;;;2.83;0.97;;;21.60;1.00;;;;;;6253032;22;20144;-89
2023/08/24 16:21:22;;;;;;;1.33;0.80;;;21.60;1.00;;;;;;6258727;23;20159;-83
2023/08/24 16:23:48;;;;;;;2.53;1.00;;;21.80;1.00;;;;;;6248270;22;20152;-83
2023/08/24 16:26:13;;;;;;;2.13;1.17;;;21.80;1.00;;;;;;6258912;22;20164;-91
2023/08/24 16:28:39;;;;;;;1.63;0.90;;;21.90;1.00;;;;;;6261786;23;20210;-91
2023/08/24 16:31:04;;;;;;;4.60;1.43;;;21.90;1.00;;;;;;6259351;23;20190;-89
2023/08/24 16:33:30;;;;;;;1.73;1.37;;;22.00;1.00;;;;;;6255070;23;20163;-92
2023/08/24 16:35:55;;;;;;;2.30;1.10;;;22.20;1.00;;;;;;6257190;23;20168;-92
2023/08/24 16:38:21;;;;;;;1.97;0.93;;;22.20;1.00;;;;;;6259125;23;20159;-91
2023/08/24 16:40:47;;;;;;;3.00;1.00;;;22.40;1.00;;;;;;6263517;22;20172;-91
2023/08/24 16:43:13;;;;;;;4.80;0.97;;;22.20;1.00;;;;;;6255484;23;20159;-91
2023/08/24 16:45:39;;;;;;;3.73;1.40;;;22.10;1.00;;;;;;6256344;23;20230;-89
2023/08/24 16:48:04;;;;;;;1.93;1.10;;;22.30;1.00;;;;;;6254489;23;20537;-90
2023/08/24 16:50:30;;;;;;;3.43;1.00;;;22.30;1.00;;;;;;6255311;23;20162;-92
2023/08/24 16:52:57;;;;;;;2.40;1.00;;;22.40;1.00;;;;;;6253427;23;20155;-90